Ana Sayfa
METAR-TAF:

METAR-TAF

Havaalanları :

Lampang, Tayland

Enlem: 18-17N, Boylam: 099-31E, yükseklik: 241 m

Güncel hava durumu gözlemi

Rapor saat 09:00 UTC de 16 dakika önce yapıldı.
Rüzgar değişken yönden 2 kt
Sıcaklık 40°C
Nem 32%
Basınç 1002 hPa
Görüş mesafesi 10 km veya daha fazla
2500 ft yükseklikte az bulutlu

METAR: VTCL 200900Z VRB02KT 9999 FEW025 40/20 Q1002 NOSIG

Saat: 16:16 (09:16 UTC)

Tahmin

Rapor saat 05:00 UTC de 4 saat ve 16 dakika önce yapıldı.
Ayın 20'si saat 06 UTC'den ayın 21'si saat 06 UTC'ye kadar geçerli Tahmin
Rüzgar güney/güneybatıdan 5 kt
Görüş mesafesi 10 km veya daha fazla
2500 ft yükseklikte az bulutlu

TAF: VTCL 200500Z 2006/2106 20005KT 9999 FEW025

4.000'den fazla havaalanı için hava durumu gözlemleri ve tahminleri (METAR ve TAF raporları).

Kullanılabilir istasyonlar harita üzerinde sarı ve kırmızı noktalarla gösterilir.

İstasyonun adını görmek için fareyi noktanın üzerinde gezdirin.

Sonrasında hava gözlem ve tahminlerini görmek için tıklayın.

Haritayı değiştirmek için: yaklaştırmak için siyah artı işaretli yeşil düğmeye ve uzaklaştırmak için de eksi işaretli düğmeye hızla tıklayın; bitişik haritalar için yeşil okları kullanın.


METAR-TAF: